Wind From: 10-12-2017 19:04 Until: 11-12-2017 16:00 warning for: Wind Level: Orange info button

Power and phone distribution networks may be disrupted for relatively long periods., Roofs and chimneys can be damaged. , Tree branches may break. , Vehicles can be deported. , Traffic may be disrupted, particularly on secondary roads in forest areas. Limit your trips. , Limit your speed in highway driving, especially if you drive a vehicle or hitch sensitive to wind. , Do not go for walks in forests or along the coast., In town, be vigilant against possible falling objects., Do not work on roofs and do not touch any electrical line fallen on the ground., Store or secure sensitive objects to wind or likely to be damaged., Always install power generators outside buildings. 


Meteo18 Weather Cam more information Meteo18 Weather Cam


Thunder radar more information blitzortung!


Rain radar more information rain snow radar


Visit our other weather sites:

Template documentation
and downloads

And another site



Weather Underground History page Text

Daily Summary for May 24, 2017 Units:  Both    English   Metric
« Previous Day
Next Day »
Daily Weekly Monthly Yearly Custom
  High: Low: Average:
Temperature: 74.1 °F /  23.4 °C 55.4 °F /  13.0 °C 65.8 °F /  18.8 °C
Dew Point: 62.6 °F /  17.0 °C 52.5 °F /  11.4 °C 57.7 °F /  14.3 °C
Humidity: 91 % 61 % 76 %
Wind Speed: 12 mph /  19.3 km/h - 3.4 mph /  5.4 km/h
Wind Gust: 15 mph /  24.1 km/h - -
Wind:- - SE
Pressure: 30.3 in /  1026.3 hPa 30.2 in /  1023.2 hPa -
Precipitation: 0 in /  0.0 mm    
Historical Graphs
 
 
Tabular Data for May 24, 2017
Time Temperature Dew Point Pressure Wind Wind Speed Wind Gust Humidity Rainfall Rate (Hourly)
00:02 61.5 °F /  16.4 °C 55.2 °F /  12.9 °C 30.3 in /  1024.9 hPa NW 2 mph /  3.2 km/h 4 mph /  6.4 km/h 80 % 0 in /  0.0 mm
00:12 61.5 °F /  16.4 °C 55.2 °F /  12.9 °C 30.3 in /  1024.9 hPa Calm   3 mph /  4.8 km/h 80 % 0 in /  0.0 mm
00:17 61.3 °F /  16.3 °C 55.4 °F /  13.0 °C 30.3 in /  1024.9 hPa WNW 1 mph /  1.6 km/h 4 mph /  6.4 km/h 81 % 0 in /  0.0 mm
00:22 61.3 °F /  16.3 °C 55.4 °F /  13.0 °C 30.3 in /  1024.9 hPa NW 1 mph /  1.6 km/h 4 mph /  6.4 km/h 81 % 0 in /  0.0 mm
00:27 61.3 °F /  16.3 °C 55.4 °F /  13.0 °C 30.3 in /  1024.9 hPa WNW 1 mph /  1.6 km/h 4 mph /  6.4 km/h 81 % 0 in /  0.0 mm
00:32 61.2 °F /  16.2 °C 55.2 °F /  12.9 °C 30.3 in /  1024.9 hPa Calm   3 mph /  4.8 km/h 81 % 0 in /  0.0 mm
00:37 61 °F /  16.1 °C 55.4 °F /  13.0 °C 30.3 in /  1024.9 hPa Calm   3 mph /  4.8 km/h 82 % 0 in /  0.0 mm
00:42 60.6 °F /  15.9 °C 55 °F /  12.8 °C 30.3 in /  1024.9 hPa Calm   2 mph /  3.2 km/h 82 % 0 in /  0.0 mm
00:52 60.1 °F /  15.6 °C 55.2 °F /  12.9 °C 30.3 in /  1024.9 hPa NNW 2 mph /  3.2 km/h 2 mph /  3.2 km/h 84 % 0 in /  0.0 mm
00:57 60.3 °F /  15.7 °C 55.8 °F /  13.2 °C 30.3 in /  1024.9 hPa NW 1 mph /  1.6 km/h 2 mph /  3.2 km/h 85 % 0 in /  0.0 mm
01:02 60.4 °F /  15.8 °C 55.6 °F /  13.1 °C 30.3 in /  1024.9 hPa WNW 2 mph /  3.2 km/h 2 mph /  3.2 km/h 84 % 0 in /  0.0 mm
01:12 60.6 °F /  15.9 °C 55.4 °F /  13.0 °C 30.3 in /  1024.9 hPa Calm   2 mph /  3.2 km/h 83 % 0 in /  0.0 mm
01:17 60.6 °F /  15.9 °C 55 °F /  12.8 °C 30.3 in /  1024.9 hPa NW 1 mph /  1.6 km/h 2 mph /  3.2 km/h 82 % 0 in /  0.0 mm
01:22 60.4 °F /  15.8 °C 54.9 °F /  12.7 °C 30.3 in /  1024.9 hPa NW 3 mph /  4.8 km/h 3 mph /  4.8 km/h 82 % 0 in /  0.0 mm
01:32 60.6 °F /  15.9 °C 54.7 °F /  12.6 °C 30.3 in /  1024.9 hPa NNW 1 mph /  1.6 km/h 4 mph /  6.4 km/h 81 % 0 in /  0.0 mm
01:42 60.6 °F /  15.9 °C 54.7 °F /  12.6 °C 30.3 in /  1024.9 hPa NW 1 mph /  1.6 km/h 4 mph /  6.4 km/h 81 % 0 in /  0.0 mm
01:47 60.8 °F /  16.0 °C 54.7 °F /  12.6 °C 30.3 in /  1024.9 hPa NW 1 mph /  1.6 km/h 2 mph /  3.2 km/h 80 % 0 in /  0.0 mm
01:52 60.8 °F /  16.0 °C 54.7 °F /  12.6 °C 30.3 in /  1024.9 hPa NW 1 mph /  1.6 km/h 2 mph /  3.2 km/h 80 % 0 in /  0.0 mm
01:57 60.6 °F /  15.9 °C 54.7 °F /  12.6 °C 30.3 in /  1024.9 hPa NNW 1 mph /  1.6 km/h 2 mph /  3.2 km/h 81 % 0 in /  0.0 mm
02:02 60.6 °F /  15.9 °C 54.7 °F /  12.6 °C 30.3 in /  1024.9 hPa Calm   2 mph /  3.2 km/h 81 % 0 in /  0.0 mm
02:07 60.4 °F /  15.8 °C 54.5 °F /  12.5 °C 30.3 in /  1024.9 hPa NW 1 mph /  1.6 km/h 3 mph /  4.8 km/h 81 % 0 in /  0.0 mm
02:12 60.4 °F /  15.8 °C 54.5 °F /  12.5 °C 30.3 in /  1024.9 hPa WNW 1 mph /  1.6 km/h 3 mph /  4.8 km/h 81 % 0 in /  0.0 mm
02:17 60.3 °F /  15.7 °C 54.7 °F /  12.6 °C 30.3 in /  1024.9 hPa Calm   2 mph /  3.2 km/h 82 % 0 in /  0.0 mm
02:22 60.1 °F /  15.6 °C 54.5 °F /  12.5 °C 30.3 in /  1024.9 hPa NW 2 mph /  3.2 km/h 2 mph /  3.2 km/h 82 % 0 in /  0.0 mm
02:32 59.9 °F /  15.5 °C 54.7 °F /  12.6 °C 30.3 in /  1024.9 hPa NNW 1 mph /  1.6 km/h 3 mph /  4.8 km/h 83 % 0 in /  0.0 mm
02:42 59.4 °F /  15.2 °C 54.1 °F /  12.3 °C 30.3 in /  1024.9 hPa NW 1 mph /  1.6 km/h 3 mph /  4.8 km/h 83 % 0 in /  0.0 mm
02:47 59.4 °F /  15.2 °C 54.5 °F /  12.5 °C 30.3 in /  1024.9 hPa NNW 1 mph /  1.6 km/h 2 mph /  3.2 km/h 84 % 0 in /  0.0 mm
02:52 59.4 °F /  15.2 °C 54.5 °F /  12.5 °C 30.3 in /  1024.9 hPa Calm   2 mph /  3.2 km/h 84 % 0 in /  0.0 mm
02:57 59.2 °F /  15.1 °C 54.3 °F /  12.4 °C 30.3 in /  1024.9 hPa Calm   2 mph /  3.2 km/h 84 % 0 in /  0.0 mm
03:02 59.2 °F /  15.1 °C 54.3 °F /  12.4 °C 30.3 in /  1024.9 hPa Calm   2 mph /  3.2 km/h 84 % 0 in /  0.0 mm
03:12 58.8 °F /  14.9 °C 54.3 °F /  12.4 °C 30.3 in /  1024.9 hPa Calm   1 mph /  1.6 km/h 85 % 0 in /  0.0 mm
03:17 58.6 °F /  14.8 °C 54.1 °F /  12.3 °C 30.3 in /  1024.9 hPa Calm   1 mph /  1.6 km/h 85 % 0 in /  0.0 mm
03:22 58.8 °F /  14.9 °C 54.3 °F /  12.4 °C 30.3 in /  1025.3 hPa Calm   1 mph /  1.6 km/h 85 % 0 in /  0.0 mm
03:32 58.5 °F /  14.7 °C 54 °F /  12.2 °C 30.3 in /  1024.9 hPa Calm   2 mph /  3.2 km/h 85 % 0 in /  0.0 mm
03:37 58.3 °F /  14.6 °C 53.8 °F /  12.1 °C 30.3 in /  1024.9 hPa Calm   2 mph /  3.2 km/h 85 % 0 in /  0.0 mm
03:42 57.9 °F /  14.4 °C 53.8 °F /  12.1 °C 30.3 in /  1024.9 hPa NNW 1 mph /  1.6 km/h 2 mph /  3.2 km/h 86 % 0 in /  0.0 mm
03:47 57.9 °F /  14.4 °C 53.8 °F /  12.1 °C 30.3 in /  1024.9 hPa Calm   2 mph /  3.2 km/h 86 % 0 in /  0.0 mm
03:52 57.9 °F /  14.4 °C 53.8 °F /  12.1 °C 30.3 in /  1025.3 hPa Calm   2 mph /  3.2 km/h 86 % 0 in /  0.0 mm
03:57 57.9 °F /  14.4 °C 53.8 °F /  12.1 °C 30.3 in /  1025.3 hPa Calm   2 mph /  3.2 km/h 86 % 0 in /  0.0 mm
04:02 57.7 °F /  14.3 °C 53.6 °F /  12.0 °C 30.3 in /  1025.3 hPa North 2 mph /  3.2 km/h 2 mph /  3.2 km/h 86 % 0 in /  0.0 mm
04:12 57.2 °F /  14.0 °C 53.1 °F /  11.7 °C 30.3 in /  1025.3 hPa NNE 3 mph /  4.8 km/h 3 mph /  4.8 km/h 86 % 0 in /  0.0 mm
04:17 56.8 °F /  13.8 °C 53.1 °F /  11.7 °C 30.3 in /  1025.3 hPa NNE 1 mph /  1.6 km/h 4 mph /  6.4 km/h 87 % 0 in /  0.0 mm
04:22 56.7 °F /  13.7 °C 52.9 °F /  11.6 °C 30.3 in /  1025.3 hPa NNE 2 mph /  3.2 km/h 4 mph /  6.4 km/h 87 % 0 in /  0.0 mm
04:32 57 °F /  13.9 °C 53.4 °F /  11.9 °C 30.3 in /  1025.3 hPa NNE 1 mph /  1.6 km/h 5 mph /  8.0 km/h 88 % 0 in /  0.0 mm
04:37 57.2 °F /  14.0 °C 53.4 °F /  11.9 °C 30.3 in /  1025.3 hPa North 2 mph /  3.2 km/h 5 mph /  8.0 km/h 87 % 0 in /  0.0 mm
04:42 57.2 °F /  14.0 °C 53.4 °F /  11.9 °C 30.3 in /  1025.3 hPa NNW 1 mph /  1.6 km/h 5 mph /  8.0 km/h 87 % 0 in /  0.0 mm
04:47 57 °F /  13.9 °C 53.2 °F /  11.8 °C 30.3 in /  1025.3 hPa North 3 mph /  4.8 km/h 5 mph /  8.0 km/h 87 % 0 in /  0.0 mm
04:52 56.8 °F /  13.8 °C 53.1 °F /  11.7 °C 30.3 in /  1025.3 hPa NE 2 mph /  3.2 km/h 5 mph /  8.0 km/h 87 % 0 in /  0.0 mm
05:02 56.5 °F /  13.6 °C 52.9 °F /  11.6 °C 30.3 in /  1025.3 hPa NNE 2 mph /  3.2 km/h 5 mph /  8.0 km/h 88 % 0 in /  0.0 mm
05:07 56.3 °F /  13.5 °C 52.9 °F /  11.6 °C 30.3 in /  1025.6 hPa North 1 mph /  1.6 km/h 5 mph /  8.0 km/h 88 % 0 in /  0.0 mm
05:12 56.1 °F /  13.4 °C 52.9 °F /  11.6 °C 30.3 in /  1025.6 hPa NNE 3 mph /  4.8 km/h 5 mph /  8.0 km/h 89 % 0 in /  0.0 mm
05:17 56.1 °F /  13.4 °C 52.9 °F /  11.6 °C 30.3 in /  1025.6 hPa NNE 4 mph /  6.4 km/h 5 mph /  8.0 km/h 89 % 0 in /  0.0 mm
05:22 56.1 °F /  13.4 °C 52.9 °F /  11.6 °C 30.3 in /  1025.6 hPa NE 2 mph /  3.2 km/h 5 mph /  8.0 km/h 89 % 0 in /  0.0 mm
05:27 55.9 °F /  13.3 °C 52.7 °F /  11.5 °C 30.3 in /  1025.6 hPa NNE 3 mph /  4.8 km/h 5 mph /  8.0 km/h 89 % 0 in /  0.0 mm
05:32 55.9 °F /  13.3 °C 53.1 °F /  11.7 °C 30.3 in /  1025.6 hPa North 1 mph /  1.6 km/h 5 mph /  8.0 km/h 90 % 0 in /  0.0 mm
05:37 56.1 °F /  13.4 °C 53.2 °F /  11.8 °C 30.3 in /  1025.6 hPa NNW 3 mph /  4.8 km/h 4 mph /  6.4 km/h 90 % 0 in /  0.0 mm
05:42 56.1 °F /  13.4 °C 52.9 °F /  11.6 °C 30.3 in /  1025.6 hPa Calm   4 mph /  6.4 km/h 89 % 0 in /  0.0 mm
05:47 56.1 °F /  13.4 °C 52.9 °F /  11.6 °C 30.3 in /  1025.6 hPa Calm   4 mph /  6.4 km/h 89 % 0 in /  0.0 mm
05:52 55.9 °F /  13.3 °C 52.7 °F /  11.5 °C 30.3 in /  1025.6 hPa NNW 1 mph /  1.6 km/h 4 mph /  6.4 km/h 89 % 0 in /  0.0 mm
05:57 55.8 °F /  13.2 °C 52.9 °F /  11.6 °C 30.3 in /  1025.6 hPa Calm   5 mph /  8.0 km/h 90 % 0 in /  0.0 mm
06:02 55.9 °F /  13.3 °C 53.1 °F /  11.7 °C 30.3 in /  1025.6 hPa North 2 mph /  3.2 km/h 5 mph /  8.0 km/h 90 % 0 in /  0.0 mm
06:07 56.3 °F /  13.5 °C 53.4 °F /  11.9 °C 30.3 in /  1025.6 hPa NNW 3 mph /  4.8 km/h 7 mph /  11.3 km/h 90 % 0 in /  0.0 mm
06:12 56.3 °F /  13.5 °C 53.1 °F /  11.7 °C 30.3 in /  1025.6 hPa NW 3 mph /  4.8 km/h 7 mph /  11.3 km/h 89 % 0 in /  0.0 mm
06:17 56.1 °F /  13.4 °C 52.9 °F /  11.6 °C 30.3 in /  1026.0 hPa North 1 mph /  1.6 km/h 7 mph /  11.3 km/h 89 % 0 in /  0.0 mm
06:22 55.9 °F /  13.3 °C 52.7 °F /  11.5 °C 30.3 in /  1026.0 hPa NNW 1 mph /  1.6 km/h 7 mph /  11.3 km/h 89 % 0 in /  0.0 mm
06:32 55.4 °F /  13.0 °C 52.5 °F /  11.4 °C 30.3 in /  1026.0 hPa North 1 mph /  1.6 km/h 4 mph /  6.4 km/h 90 % 0 in /  0.0 mm
06:37 55.4 °F /  13.0 °C 52.5 °F /  11.4 °C 30.3 in /  1026.0 hPa Calm   4 mph /  6.4 km/h 90 % 0 in /  0.0 mm
06:42 55.8 °F /  13.2 °C 53.2 °F /  11.8 °C 30.3 in /  1026.0 hPa Calm   2 mph /  3.2 km/h 91 % 0 in /  0.0 mm
06:52 56.1 °F /  13.4 °C 53.2 °F /  11.8 °C 30.3 in /  1026.0 hPa Calm   2 mph /  3.2 km/h 90 % 0 in /  0.0 mm
06:57 56.1 °F /  13.4 °C 53.2 °F /  11.8 °C 30.3 in /  1026.0 hPa North 1 mph /  1.6 km/h 2 mph /  3.2 km/h 90 % 0 in /  0.0 mm
07:02 56.1 °F /  13.4 °C 53.2 °F /  11.8 °C 30.3 in /  1026.0 hPa Calm   2 mph /  3.2 km/h 90 % 0 in /  0.0 mm
07:07 56.3 °F /  13.5 °C 53.4 °F /  11.9 °C 30.3 in /  1026.0 hPa Calm   2 mph /  3.2 km/h 90 % 0 in /  0.0 mm
07:12 56.7 °F /  13.7 °C 53.8 °F /  12.1 °C 30.3 in /  1026.0 hPa NW 1 mph /  1.6 km/h 2 mph /  3.2 km/h 90 % 0 in /  0.0 mm
07:22 57.4 °F /  14.1 °C 54.1 °F /  12.3 °C 30.3 in /  1026.0 hPa NNW 2 mph /  3.2 km/h 3 mph /  4.8 km/h 89 % 0 in /  0.0 mm
07:27 57.9 °F /  14.4 °C 54.3 °F /  12.4 °C 30.3 in /  1026.0 hPa Calm   3 mph /  4.8 km/h 88 % 0 in /  0.0 mm
07:32 58.5 °F /  14.7 °C 54.9 °F /  12.7 °C 30.3 in /  1026.0 hPa North 1 mph /  1.6 km/h 3 mph /  4.8 km/h 88 % 0 in /  0.0 mm
07:37 58.6 °F /  14.8 °C 54.9 °F /  12.7 °C 30.3 in /  1026.0 hPa WNW 2 mph /  3.2 km/h 3 mph /  4.8 km/h 87 % 0 in /  0.0 mm
07:42 58.8 °F /  14.9 °C 55 °F /  12.8 °C 30.3 in /  1026.0 hPa Calm   3 mph /  4.8 km/h 87 % 0 in /  0.0 mm
07:52 59.5 °F /  15.3 °C 55.4 °F /  13.0 °C 30.3 in /  1026.0 hPa Calm   3 mph /  4.8 km/h 86 % 0 in /  0.0 mm
08:02 60.4 °F /  15.8 °C 55.9 °F /  13.3 °C 30.3 in /  1026.0 hPa Calm   2 mph /  3.2 km/h 85 % 0 in /  0.0 mm
08:07 61 °F /  16.1 °C 56.1 °F /  13.4 °C 30.3 in /  1026.3 hPa NNE 1 mph /  1.6 km/h 2 mph /  3.2 km/h 84 % 0 in /  0.0 mm
08:12 61.3 °F /  16.3 °C 56.5 °F /  13.6 °C 30.3 in /  1026.3 hPa North 2 mph /  3.2 km/h 3 mph /  4.8 km/h 84 % 0 in /  0.0 mm
08:17 61.5 °F /  16.4 °C 56.3 °F /  13.5 °C 30.3 in /  1026.3 hPa NNE 3 mph /  4.8 km/h 3 mph /  4.8 km/h 83 % 0 in /  0.0 mm
08:22 61.9 °F /  16.6 °C 56.7 °F /  13.7 °C 30.3 in /  1026.3 hPa NNE 2 mph /  3.2 km/h 4 mph /  6.4 km/h 83 % 0 in /  0.0 mm
08:32 62.4 °F /  16.9 °C 56.5 °F /  13.6 °C 30.3 in /  1026.3 hPa ENE 1 mph /  1.6 km/h 4 mph /  6.4 km/h 81 % 0 in /  0.0 mm
08:42 63.1 °F /  17.3 °C 56.5 °F /  13.6 °C 30.3 in /  1026.3 hPa NNE 4 mph /  6.4 km/h 5 mph /  8.0 km/h 79 % 0 in /  0.0 mm
08:47 63.3 °F /  17.4 °C 57.4 °F /  14.1 °C 30.3 in /  1026.3 hPa NE 1 mph /  1.6 km/h 5 mph /  8.0 km/h 81 % 0 in /  0.0 mm
08:52 63.7 °F /  17.6 °C 57 °F /  13.9 °C 30.3 in /  1026.3 hPa North 4 mph /  6.4 km/h 7 mph /  11.3 km/h 79 % 0 in /  0.0 mm
08:57 63.9 °F /  17.7 °C 56.8 °F /  13.8 °C 30.3 in /  1026.3 hPa NE 4 mph /  6.4 km/h 7 mph /  11.3 km/h 78 % 0 in /  0.0 mm
09:02 63.9 °F /  17.7 °C 56.5 °F /  13.6 °C 30.3 in /  1026.3 hPa NE 4 mph /  6.4 km/h 7 mph /  11.3 km/h 77 % 0 in /  0.0 mm
09:12 64.2 °F /  17.9 °C 56.5 °F /  13.6 °C 30.3 in /  1026.3 hPa NNE 5 mph /  8.0 km/h 6 mph /  9.7 km/h 76 % 0 in /  0.0 mm
09:17 64.2 °F /  17.9 °C 57.2 °F /  14.0 °C 30.3 in /  1026.3 hPa NE 4 mph /  6.4 km/h 6 mph /  9.7 km/h 78 % 0 in /  0.0 mm
09:22 64.4 °F /  18.0 °C 57 °F /  13.9 °C 30.3 in /  1026.3 hPa North 2 mph /  3.2 km/h 9 mph /  14.5 km/h 77 % 0 in /  0.0 mm
09:27 64.4 °F /  18.0 °C 56.7 °F /  13.7 °C 30.3 in /  1026.3 hPa NE 4 mph /  6.4 km/h 9 mph /  14.5 km/h 76 % 0 in /  0.0 mm
09:32 64.6 °F /  18.1 °C 56.5 °F /  13.6 °C 30.3 in /  1026.0 hPa ENE 4 mph /  6.4 km/h 9 mph /  14.5 km/h 75 % 0 in /  0.0 mm
09:37 64.8 °F /  18.2 °C 56.7 °F /  13.7 °C 30.3 in /  1026.3 hPa NE 2 mph /  3.2 km/h 9 mph /  14.5 km/h 75 % 0 in /  0.0 mm
09:42 64.9 °F /  18.3 °C 56.5 °F /  13.6 °C 30.3 in /  1026.0 hPa NE 8 mph /  12.9 km/h 10 mph /  16.1 km/h 74 % 0 in /  0.0 mm
09:47 64.8 °F /  18.2 °C 55.6 °F /  13.1 °C 30.3 in /  1026.0 hPa NE 4 mph /  6.4 km/h 10 mph /  16.1 km/h 72 % 0 in /  0.0 mm
09:52 65.1 °F /  18.4 °C 56.7 °F /  13.7 °C 30.3 in /  1026.0 hPa NE 4 mph /  6.4 km/h 10 mph /  16.1 km/h 74 % 0 in /  0.0 mm
09:57 65.5 °F /  18.6 °C 56.7 °F /  13.7 °C 30.3 in /  1026.0 hPa North 5 mph /  8.0 km/h 10 mph /  16.1 km/h 73 % 0 in /  0.0 mm
10:02 65.7 °F /  18.7 °C 56.8 °F /  13.8 °C 30.3 in /  1026.0 hPa NE 6 mph /  9.7 km/h 10 mph /  16.1 km/h 73 % 0 in /  0.0 mm
10:12 66 °F /  18.9 °C 57.2 °F /  14.0 °C 30.3 in /  1026.0 hPa NE 5 mph /  8.0 km/h 9 mph /  14.5 km/h 73 % 0 in /  0.0 mm
10:17 66.4 °F /  19.1 °C 57.9 °F /  14.4 °C 30.3 in /  1026.0 hPa Calm   9 mph /  14.5 km/h 74 % 0 in /  0.0 mm
10:22 66.9 °F /  19.4 °C 58.3 °F /  14.6 °C 30.3 in /  1026.0 hPa NE 2 mph /  3.2 km/h 9 mph /  14.5 km/h 74 % 0 in /  0.0 mm
10:32 67.1 °F /  19.5 °C 57.7 °F /  14.3 °C 30.3 in /  1026.0 hPa NW 1 mph /  1.6 km/h 7 mph /  11.3 km/h 72 % 0 in /  0.0 mm
10:37 67.3 °F /  19.6 °C 57.6 °F /  14.2 °C 30.3 in /  1026.0 hPa East 1 mph /  1.6 km/h 7 mph /  11.3 km/h 71 % 0 in /  0.0 mm
10:42 67.8 °F /  19.9 °C 58.8 °F /  14.9 °C 30.3 in /  1026.0 hPa East 3 mph /  4.8 km/h 8 mph /  12.9 km/h 73 % 0 in /  0.0 mm
10:47 68 °F /  20.0 °C 58.6 °F /  14.8 °C 30.3 in /  1026.0 hPa NE 3 mph /  4.8 km/h 8 mph /  12.9 km/h 72 % 0 in /  0.0 mm
10:52 68 °F /  20.0 °C 58.6 °F /  14.8 °C 30.3 in /  1026.0 hPa NNE 6 mph /  9.7 km/h 6 mph /  9.7 km/h 72 % 0 in /  0.0 mm
10:57 68.2 °F /  20.1 °C 57.6 °F /  14.2 °C 30.3 in /  1026.0 hPa NE 1 mph /  1.6 km/h 6 mph /  9.7 km/h 69 % 0 in /  0.0 mm
11:02 68.4 °F /  20.2 °C 58.3 °F /  14.6 °C 30.3 in /  1026.0 hPa ENE 2 mph /  3.2 km/h 7 mph /  11.3 km/h 70 % 0 in /  0.0 mm
11:12 68.7 °F /  20.4 °C 58.1 °F /  14.5 °C 30.3 in /  1026.0 hPa ENE 4 mph /  6.4 km/h 7 mph /  11.3 km/h 69 % 0 in /  0.0 mm
11:17 69.3 °F /  20.7 °C 58.6 °F /  14.8 °C 30.3 in /  1026.0 hPa East 2 mph /  3.2 km/h 7 mph /  11.3 km/h 69 % 0 in /  0.0 mm
11:22 69.6 °F /  20.9 °C 59.4 °F /  15.2 °C 30.3 in /  1026.0 hPa ENE 5 mph /  8.0 km/h 7 mph /  11.3 km/h 70 % 0 in /  0.0 mm
11:27 69.6 °F /  20.9 °C 58.6 °F /  14.8 °C 30.3 in /  1026.0 hPa East 2 mph /  3.2 km/h 7 mph /  11.3 km/h 68 % 0 in /  0.0 mm
11:32 69.8 °F /  21.0 °C 59.5 °F /  15.3 °C 30.3 in /  1026.0 hPa North 3 mph /  4.8 km/h 6 mph /  9.7 km/h 70 % 0 in /  0.0 mm
11:37 69.6 °F /  20.9 °C 59.4 °F /  15.2 °C 30.3 in /  1026.0 hPa NNE 1 mph /  1.6 km/h 6 mph /  9.7 km/h 70 % 0 in /  0.0 mm
11:42 70 °F /  21.1 °C 59.4 °F /  15.2 °C 30.3 in /  1026.0 hPa NNW 1 mph /  1.6 km/h 7 mph /  11.3 km/h 69 % 0 in /  0.0 mm
11:47 70.3 °F /  21.3 °C 59.7 °F /  15.4 °C 30.3 in /  1026.0 hPa North 4 mph /  6.4 km/h 7 mph /  11.3 km/h 69 % 0 in /  0.0 mm
11:52 69.8 °F /  21.0 °C 58.3 °F /  14.6 °C 30.3 in /  1026.0 hPa NE 7 mph /  11.3 km/h 7 mph /  11.3 km/h 67 % 0 in /  0.0 mm
11:57 69.8 °F /  21.0 °C 59.2 °F /  15.1 °C 30.3 in /  1026.0 hPa NE 6 mph /  9.7 km/h 7 mph /  11.3 km/h 69 % 0 in /  0.0 mm
12:02 70 °F /  21.1 °C 58.5 °F /  14.7 °C 30.3 in /  1026.0 hPa ENE 4 mph /  6.4 km/h 10 mph /  16.1 km/h 67 % 0 in /  0.0 mm
12:07 69.8 °F /  21.0 °C 58.8 °F /  14.9 °C 30.3 in /  1026.0 hPa NE 3 mph /  4.8 km/h 10 mph /  16.1 km/h 68 % 0 in /  0.0 mm
12:12 70.5 °F /  21.4 °C 59.4 °F /  15.2 °C 30.3 in /  1026.0 hPa NE 4 mph /  6.4 km/h 11 mph /  17.7 km/h 68 % 0 in /  0.0 mm
12:17 70.2 °F /  21.2 °C 59.9 °F /  15.5 °C 30.3 in /  1026.0 hPa NNE 6 mph /  9.7 km/h 11 mph /  17.7 km/h 70 % 0 in /  0.0 mm
12:22 70 °F /  21.1 °C 59 °F /  15.0 °C 30.3 in /  1026.0 hPa NE 4 mph /  6.4 km/h 10 mph /  16.1 km/h 68 % 0 in /  0.0 mm
12:32 70.9 °F /  21.6 °C 60.6 °F /  15.9 °C 30.3 in /  1025.6 hPa NE 6 mph /  9.7 km/h 9 mph /  14.5 km/h 70 % 0 in /  0.0 mm
12:42 71.1 °F /  21.7 °C 59.5 °F /  15.3 °C 30.3 in /  1025.6 hPa NW 9 mph /  14.5 km/h 11 mph /  17.7 km/h 67 % 0 in /  0.0 mm
12:52 71.1 °F /  21.7 °C 59.9 °F /  15.5 °C 30.3 in /  1025.6 hPa NNE 2 mph /  3.2 km/h 12 mph /  19.3 km/h 68 % 0 in /  0.0 mm
13:02 71.2 °F /  21.8 °C 60.1 °F /  15.6 °C 30.3 in /  1025.6 hPa North 5 mph /  8.0 km/h 12 mph /  19.3 km/h 68 % 0 in /  0.0 mm
13:12 70.9 °F /  21.6 °C 59.7 °F /  15.4 °C 30.3 in /  1025.6 hPa NE 5 mph /  8.0 km/h 14 mph /  22.5 km/h 68 % 0 in /  0.0 mm
13:17 70.9 °F /  21.6 °C 59.4 °F /  15.2 °C 30.3 in /  1025.6 hPa NNE 11 mph /  17.7 km/h 14 mph /  22.5 km/h 67 % 0 in /  0.0 mm
13:22 71.2 °F /  21.8 °C 60.1 °F /  15.6 °C 30.3 in /  1025.3 hPa NNW 5 mph /  8.0 km/h 14 mph /  22.5 km/h 68 % 0 in /  0.0 mm
13:32 71.8 °F /  22.1 °C 60.3 °F /  15.7 °C 30.3 in /  1025.3 hPa North 3 mph /  4.8 km/h 13 mph /  20.9 km/h 67 % 0 in /  0.0 mm
13:37 72 °F /  22.2 °C 61.2 °F /  16.2 °C 30.3 in /  1025.3 hPa NE 6 mph /  9.7 km/h 10 mph /  16.1 km/h 69 % 0 in /  0.0 mm
13:42 71.8 °F /  22.1 °C 60.3 °F /  15.7 °C 30.3 in /  1025.3 hPa North 5 mph /  8.0 km/h 10 mph /  16.1 km/h 67 % 0 in /  0.0 mm
13:47 71.8 °F /  22.1 °C 59.4 °F /  15.2 °C 30.3 in /  1025.3 hPa NNW 4 mph /  6.4 km/h 12 mph /  19.3 km/h 65 % 0 in /  0.0 mm
13:52 71.2 °F /  21.8 °C 59.4 °F /  15.2 °C 30.3 in /  1025.3 hPa NNE 7 mph /  11.3 km/h 12 mph /  19.3 km/h 66 % 0 in /  0.0 mm
13:57 71.2 °F /  21.8 °C 60.1 °F /  15.6 °C 30.3 in /  1025.3 hPa NE 3 mph /  4.8 km/h 12 mph /  19.3 km/h 68 % 0 in /  0.0 mm
14:02 72 °F /  22.2 °C 59.9 °F /  15.5 °C 30.3 in /  1025.3 hPa NNE 7 mph /  11.3 km/h 12 mph /  19.3 km/h 66 % 0 in /  0.0 mm
14:07 72.5 °F /  22.5 °C 60.4 °F /  15.8 °C 30.3 in /  1025.3 hPa NNE 5 mph /  8.0 km/h 11 mph /  17.7 km/h 66 % 0 in /  0.0 mm
14:12 73.2 °F /  22.9 °C 59.4 °F /  15.2 °C 30.3 in /  1024.9 hPa North 4 mph /  6.4 km/h 11 mph /  17.7 km/h 62 % 0 in /  0.0 mm
14:17 72.7 °F /  22.6 °C 60.3 °F /  15.7 °C 30.3 in /  1024.9 hPa NNE 9 mph /  14.5 km/h 13 mph /  20.9 km/h 65 % 0 in /  0.0 mm
14:22 72.7 °F /  22.6 °C 60.6 °F /  15.9 °C 30.3 in /  1024.9 hPa NE 7 mph /  11.3 km/h 13 mph /  20.9 km/h 66 % 0 in /  0.0 mm
14:32 72.3 °F /  22.4 °C 58.6 °F /  14.8 °C 30.3 in /  1024.9 hPa NE 3 mph /  4.8 km/h 13 mph /  20.9 km/h 62 % 0 in /  0.0 mm
14:37 73 °F /  22.8 °C 59.7 °F /  15.4 °C 30.3 in /  1024.9 hPa East 8 mph /  12.9 km/h 14 mph /  22.5 km/h 63 % 0 in /  0.0 mm
14:42 73.2 °F /  22.9 °C 59.9 °F /  15.5 °C 30.3 in /  1024.9 hPa NNE 12 mph /  19.3 km/h 14 mph /  22.5 km/h 63 % 0 in /  0.0 mm
14:47 73.2 °F /  22.9 °C 60.8 °F /  16.0 °C 30.3 in /  1024.9 hPa NNW 4 mph /  6.4 km/h 13 mph /  20.9 km/h 65 % 0 in /  0.0 mm
14:52 73.6 °F /  23.1 °C 61.2 °F /  16.2 °C 30.3 in /  1024.9 hPa NW 1 mph /  1.6 km/h 13 mph /  20.9 km/h 65 % 0 in /  0.0 mm
14:57 73.9 °F /  23.3 °C 61 °F /  16.1 °C 30.3 in /  1024.9 hPa NE 3 mph /  4.8 km/h 13 mph /  20.9 km/h 64 % 0 in /  0.0 mm
15:02 73.8 °F /  23.2 °C 59.5 °F /  15.3 °C 30.3 in /  1024.6 hPa NNW 3 mph /  4.8 km/h 13 mph /  20.9 km/h 61 % 0 in /  0.0 mm
15:07 73.4 °F /  23.0 °C 61 °F /  16.1 °C 30.3 in /  1024.9 hPa NNE 6 mph /  9.7 km/h 14 mph /  22.5 km/h 65 % 0 in /  0.0 mm
15:12 73.2 °F /  22.9 °C 60.3 °F /  15.7 °C 30.3 in /  1024.6 hPa NNE 2 mph /  3.2 km/h 14 mph /  22.5 km/h 64 % 0 in /  0.0 mm
15:17 73 °F /  22.8 °C 59.2 °F /  15.1 °C 30.3 in /  1024.6 hPa ENE 3 mph /  4.8 km/h 14 mph /  22.5 km/h 62 % 0 in /  0.0 mm
15:22 73 °F /  22.8 °C 60.6 °F /  15.9 °C 30.3 in /  1024.6 hPa NE 3 mph /  4.8 km/h 14 mph /  22.5 km/h 65 % 0 in /  0.0 mm
15:27 73.8 °F /  23.2 °C 60.4 °F /  15.8 °C 30.3 in /  1024.6 hPa NW 1 mph /  1.6 km/h 12 mph /  19.3 km/h 63 % 0 in /  0.0 mm
15:32 74.1 °F /  23.4 °C 60.3 °F /  15.7 °C 30.3 in /  1024.6 hPa NE 11 mph /  17.7 km/h 12 mph /  19.3 km/h 62 % 0 in /  0.0 mm
15:42 73.6 °F /  23.1 °C 59.4 °F /  15.2 °C 30.3 in /  1024.6 hPa NE 3 mph /  4.8 km/h 14 mph /  22.5 km/h 61 % 0 in /  0.0 mm
15:47 73.4 °F /  23.0 °C 60.4 °F /  15.8 °C 30.3 in /  1024.6 hPa NE 7 mph /  11.3 km/h 14 mph /  22.5 km/h 64 % 0 in /  0.0 mm
15:52 73.2 °F /  22.9 °C 59.9 °F /  15.5 °C 30.3 in /  1024.6 hPa North 7 mph /  11.3 km/h 14 mph /  22.5 km/h 63 % 0 in /  0.0 mm
15:57 73 °F /  22.8 °C 59.2 °F /  15.1 °C 30.3 in /  1024.6 hPa ENE 7 mph /  11.3 km/h 15 mph /  24.1 km/h 62 % 0 in /  0.0 mm
16:02 73.6 °F /  23.1 °C 60.3 °F /  15.7 °C 30.3 in /  1024.3 hPa NNE 6 mph /  9.7 km/h 15 mph /  24.1 km/h 63 % 0 in /  0.0 mm
16:12 73.9 °F /  23.3 °C 60.6 °F /  15.9 °C 30.3 in /  1024.3 hPa NE 5 mph /  8.0 km/h 14 mph /  22.5 km/h 63 % 0 in /  0.0 mm
16:17 73.9 °F /  23.3 °C 60.6 °F /  15.9 °C 30.3 in /  1024.3 hPa West 6 mph /  9.7 km/h 13 mph /  20.9 km/h 63 % 0 in /  0.0 mm
16:22 74.1 °F /  23.4 °C 60.8 °F /  16.0 °C 30.3 in /  1024.3 hPa NNW 5 mph /  8.0 km/h 13 mph /  20.9 km/h 63 % 0 in /  0.0 mm
16:32 73.9 °F /  23.3 °C 60.1 °F /  15.6 °C 30.3 in /  1024.3 hPa ENE 6 mph /  9.7 km/h 10 mph /  16.1 km/h 62 % 0 in /  0.0 mm
16:37 73.9 °F /  23.3 °C 61 °F /  16.1 °C 30.3 in /  1024.3 hPa NNW 5 mph /  8.0 km/h 10 mph /  16.1 km/h 64 % 0 in /  0.0 mm
16:42 74.1 °F /  23.4 °C 62.1 °F /  16.7 °C 30.3 in /  1024.3 hPa NNE 4 mph /  6.4 km/h 10 mph /  16.1 km/h 66 % 0 in /  0.0 mm
16:47 74.1 °F /  23.4 °C 60.8 °F /  16.0 °C 30.3 in /  1024.3 hPa NNE 7 mph /  11.3 km/h 12 mph /  19.3 km/h 63 % 0 in /  0.0 mm
16:52 73.6 °F /  23.1 °C 60.3 °F /  15.7 °C 30.3 in /  1024.3 hPa NE 12 mph /  19.3 km/h 12 mph /  19.3 km/h 63 % 0 in /  0.0 mm
16:57 73.2 °F /  22.9 °C 61.5 °F /  16.4 °C 30.3 in /  1024.3 hPa NNW 5 mph /  8.0 km/h 15 mph /  24.1 km/h 67 % 0 in /  0.0 mm
17:02 73.6 °F /  23.1 °C 62.4 °F /  16.9 °C 30.3 in /  1024.3 hPa NE 7 mph /  11.3 km/h 15 mph /  24.1 km/h 68 % 0 in /  0.0 mm
17:07 73.9 °F /  23.3 °C 60.6 °F /  15.9 °C 30.2 in /  1023.9 hPa NNE 6 mph /  9.7 km/h 14 mph /  22.5 km/h 63 % 0 in /  0.0 mm
17:12 73.8 °F /  23.2 °C 61.3 °F /  16.3 °C 30.2 in /  1023.9 hPa NNE 9 mph /  14.5 km/h 14 mph /  22.5 km/h 65 % 0 in /  0.0 mm
17:17 73.8 °F /  23.2 °C 62.1 °F /  16.7 °C 30.2 in /  1023.9 hPa NNW 6 mph /  9.7 km/h 13 mph /  20.9 km/h 67 % 0 in /  0.0 mm
17:22 73.8 °F /  23.2 °C 62.1 °F /  16.7 °C 30.2 in /  1023.9 hPa NNE 5 mph /  8.0 km/h 13 mph /  20.9 km/h 67 % 0 in /  0.0 mm
17:27 73.9 °F /  23.3 °C 61.9 °F /  16.6 °C 30.2 in /  1023.9 hPa NNE 11 mph /  17.7 km/h 12 mph /  19.3 km/h 66 % 0 in /  0.0 mm
17:32 73.8 °F /  23.2 °C 61.7 °F /  16.5 °C 30.2 in /  1023.9 hPa NE 6 mph /  9.7 km/h 12 mph /  19.3 km/h 66 % 0 in /  0.0 mm
17:37 73.9 °F /  23.3 °C 62.2 °F /  16.8 °C 30.2 in /  1023.6 hPa NE 4 mph /  6.4 km/h 14 mph /  22.5 km/h 67 % 0 in /  0.0 mm
17:42 73.9 °F /  23.3 °C 61.3 °F /  16.3 °C 30.2 in /  1023.6 hPa NNE 2 mph /  3.2 km/h 14 mph /  22.5 km/h 65 % 0 in /  0.0 mm
17:47 73.8 °F /  23.2 °C 61.7 °F /  16.5 °C 30.2 in /  1023.6 hPa ENE 6 mph /  9.7 km/h 10 mph /  16.1 km/h 66 % 0 in /  0.0 mm
17:52 73.8 °F /  23.2 °C 61.3 °F /  16.3 °C 30.2 in /  1023.6 hPa NW 4 mph /  6.4 km/h 10 mph /  16.1 km/h 65 % 0 in /  0.0 mm
17:57 73.8 °F /  23.2 °C 62.1 °F /  16.7 °C 30.2 in /  1023.6 hPa NNE 11 mph /  17.7 km/h 13 mph /  20.9 km/h 67 % 0 in /  0.0 mm
18:02 73.6 °F /  23.1 °C 61.9 °F /  16.6 °C 30.2 in /  1023.6 hPa ENE 5 mph /  8.0 km/h 13 mph /  20.9 km/h 67 % 0 in /  0.0 mm
18:07 73.6 °F /  23.1 °C 61.9 °F /  16.6 °C 30.2 in /  1023.6 hPa NNE 11 mph /  17.7 km/h 13 mph /  20.9 km/h 67 % 0 in /  0.0 mm
18:12 73.4 °F /  23.0 °C 61.3 °F /  16.3 °C 30.2 in /  1023.6 hPa SSE 2 mph /  3.2 km/h 13 mph /  20.9 km/h 66 % 0 in /  0.0 mm
18:17 73.6 °F /  23.1 °C 61.9 °F /  16.6 °C 30.2 in /  1023.6 hPa ENE 2 mph /  3.2 km/h 14 mph /  22.5 km/h 67 % 0 in /  0.0 mm
18:22 73.6 °F /  23.1 °C 61.9 °F /  16.6 °C 30.2 in /  1023.6 hPa North 4 mph /  6.4 km/h 14 mph /  22.5 km/h 67 % 0 in /  0.0 mm
18:27 73.2 °F /  22.9 °C 61.5 °F /  16.4 °C 30.2 in /  1023.6 hPa North 5 mph /  8.0 km/h 14 mph /  22.5 km/h 67 % 0 in /  0.0 mm
18:32 73.2 °F /  22.9 °C 61.5 °F /  16.4 °C 30.2 in /  1023.6 hPa NNE 4 mph /  6.4 km/h 13 mph /  20.9 km/h 67 % 0 in /  0.0 mm
18:37 73.4 °F /  23.0 °C 62.6 °F /  17.0 °C 30.2 in /  1023.6 hPa NE 4 mph /  6.4 km/h 13 mph /  20.9 km/h 69 % 0 in /  0.0 mm
18:42 73.2 °F /  22.9 °C 62.1 °F /  16.7 °C 30.2 in /  1023.6 hPa NNW 11 mph /  17.7 km/h 13 mph /  20.9 km/h 68 % 0 in /  0.0 mm
18:47 72.9 °F /  22.7 °C 61.7 °F /  16.5 °C 30.2 in /  1023.6 hPa NW 2 mph /  3.2 km/h 13 mph /  20.9 km/h 68 % 0 in /  0.0 mm
18:52 72.9 °F /  22.7 °C 61.7 °F /  16.5 °C 30.2 in /  1023.6 hPa North 6 mph /  9.7 km/h 15 mph /  24.1 km/h 68 % 0 in /  0.0 mm
18:57 72.9 °F /  22.7 °C 62.1 °F /  16.7 °C 30.2 in /  1023.6 hPa North 8 mph /  12.9 km/h 15 mph /  24.1 km/h 69 % 0 in /  0.0 mm
19:02 72.7 °F /  22.6 °C 61.5 °F /  16.4 °C 30.2 in /  1023.6 hPa North 4 mph /  6.4 km/h 15 mph /  24.1 km/h 68 % 0 in /  0.0 mm
19:07 72.7 °F /  22.6 °C 61.5 °F /  16.4 °C 30.2 in /  1023.6 hPa NNW 6 mph /  9.7 km/h 13 mph /  20.9 km/h 68 % 0 in /  0.0 mm
19:12 72.7 °F /  22.6 °C 61.9 °F /  16.6 °C 30.2 in /  1023.6 hPa NNE 8 mph /  12.9 km/h 13 mph /  20.9 km/h 69 % 0 in /  0.0 mm
19:17 72.5 °F /  22.5 °C 61.7 °F /  16.5 °C 30.2 in /  1023.2 hPa NNE 8 mph /  12.9 km/h 13 mph /  20.9 km/h 69 % 0 in /  0.0 mm
19:22 72.3 °F /  22.4 °C 61.5 °F /  16.4 °C 30.2 in /  1023.2 hPa NNW 5 mph /  8.0 km/h 13 mph /  20.9 km/h 69 % 0 in /  0.0 mm
19:32 72 °F /  22.2 °C 61.2 °F /  16.2 °C 30.2 in /  1023.6 hPa North 7 mph /  11.3 km/h 15 mph /  24.1 km/h 69 % 0 in /  0.0 mm
19:37 72 °F /  22.2 °C 61.7 °F /  16.5 °C 30.2 in /  1023.6 hPa NE 8 mph /  12.9 km/h 15 mph /  24.1 km/h 70 % 0 in /  0.0 mm
19:42 71.8 °F /  22.1 °C 61 °F /  16.1 °C 30.2 in /  1023.2 hPa NNW 12 mph /  19.3 km/h 15 mph /  24.1 km/h 69 % 0 in /  0.0 mm
19:52 71.2 °F /  21.8 °C 61 °F /  16.1 °C 30.2 in /  1023.2 hPa NNE 8 mph /  12.9 km/h 14 mph /  22.5 km/h 70 % 0 in /  0.0 mm
20:02 71.1 °F /  21.7 °C 61.2 °F /  16.2 °C 30.2 in /  1023.2 hPa NNW 6 mph /  9.7 km/h 14 mph /  22.5 km/h 71 % 0 in /  0.0 mm
20:07 70.9 °F /  21.6 °C 60.6 °F /  15.9 °C 30.2 in /  1023.2 hPa NNE 8 mph /  12.9 km/h 14 mph /  22.5 km/h 70 % 0 in /  0.0 mm
20:12 70.7 °F /  21.5 °C 60.8 °F /  16.0 °C 30.2 in /  1023.6 hPa NNE 5 mph /  8.0 km/h 14 mph /  22.5 km/h 71 % 0 in /  0.0 mm
20:17 70.5 °F /  21.4 °C 61 °F /  16.1 °C 30.2 in /  1023.2 hPa NNW 3 mph /  4.8 km/h 11 mph /  17.7 km/h 72 % 0 in /  0.0 mm
20:22 70.3 °F /  21.3 °C 60.4 °F /  15.8 °C 30.2 in /  1023.2 hPa NNE 2 mph /  3.2 km/h 11 mph /  17.7 km/h 71 % 0 in /  0.0 mm
20:32 70.2 °F /  21.2 °C 60.6 °F /  15.9 °C 30.2 in /  1023.2 hPa NNE 5 mph /  8.0 km/h 9 mph /  14.5 km/h 72 % 0 in /  0.0 mm
20:37 70 °F /  21.1 °C 60.6 °F /  15.9 °C 30.2 in /  1023.6 hPa NE 3 mph /  4.8 km/h 9 mph /  14.5 km/h 72 % 0 in /  0.0 mm
20:42 69.8 °F /  21.0 °C 60.4 °F /  15.8 °C 30.2 in /  1023.6 hPa North 3 mph /  4.8 km/h 9 mph /  14.5 km/h 72 % 0 in /  0.0 mm
20:47 69.4 °F /  20.8 °C 60.1 °F /  15.6 °C 30.2 in /  1023.6 hPa NNW 6 mph /  9.7 km/h 8 mph /  12.9 km/h 72 % 0 in /  0.0 mm
20:52 69.3 °F /  20.7 °C 60.3 °F /  15.7 °C 30.2 in /  1023.6 hPa NE 4 mph /  6.4 km/h 8 mph /  12.9 km/h 73 % 0 in /  0.0 mm
21:02 68.7 °F /  20.4 °C 60.1 °F /  15.6 °C 30.2 in /  1023.2 hPa NW 3 mph /  4.8 km/h 8 mph /  12.9 km/h 74 % 0 in /  0.0 mm
21:12 68.2 °F /  20.1 °C 59.9 °F /  15.5 °C 30.2 in /  1023.2 hPa NE 3 mph /  4.8 km/h 8 mph /  12.9 km/h 75 % 0 in /  0.0 mm
21:17 67.8 °F /  19.9 °C 59.9 °F /  15.5 °C 30.2 in /  1023.6 hPa NNE 2 mph /  3.2 km/h 9 mph /  14.5 km/h 76 % 0 in /  0.0 mm
21:27 66.7 °F /  19.3 °C 59.4 °F /  15.2 °C 30.2 in /  1023.6 hPa North 2 mph /  3.2 km/h 9 mph /  14.5 km/h 77 % 0 in /  0.0 mm
21:32 66.6 °F /  19.2 °C 59.5 °F /  15.3 °C 30.2 in /  1023.6 hPa NNE 2 mph /  3.2 km/h 9 mph /  14.5 km/h 78 % 0 in /  0.0 mm
21:42 66 °F /  18.9 °C 59.4 °F /  15.2 °C 30.2 in /  1023.6 hPa NNE 7 mph /  11.3 km/h 9 mph /  14.5 km/h 79 % 0 in /  0.0 mm
21:47 65.8 °F /  18.8 °C 59.2 °F /  15.1 °C 30.2 in /  1023.6 hPa NNW 3 mph /  4.8 km/h 8 mph /  12.9 km/h 79 % 0 in /  0.0 mm
21:52 65.7 °F /  18.7 °C 59 °F /  15.0 °C 30.2 in /  1023.6 hPa NNE 1 mph /  1.6 km/h 8 mph /  12.9 km/h 79 % 0 in /  0.0 mm
22:02 64.9 °F /  18.3 °C 59 °F /  15.0 °C 30.2 in /  1023.6 hPa NNE 1 mph /  1.6 km/h 8 mph /  12.9 km/h 81 % 0 in /  0.0 mm
22:12 64.6 °F /  18.1 °C 58.6 °F /  14.8 °C 30.2 in /  1023.6 hPa NNW 2 mph /  3.2 km/h 6 mph /  9.7 km/h 81 % 0 in /  0.0 mm
22:17 64.4 °F /  18.0 °C 58.8 °F /  14.9 °C 30.2 in /  1023.6 hPa NW 4 mph /  6.4 km/h 8 mph /  12.9 km/h 82 % 0 in /  0.0 mm
22:22 64.2 °F /  17.9 °C 58.6 °F /  14.8 °C 30.2 in /  1023.6 hPa North 2 mph /  3.2 km/h 8 mph /  12.9 km/h 82 % 0 in /  0.0 mm
22:32 64 °F /  17.8 °C 58.5 °F /  14.7 °C 30.2 in /  1023.9 hPa NNE 3 mph /  4.8 km/h 8 mph /  12.9 km/h 82 % 0 in /  0.0 mm
22:37 64 °F /  17.8 °C 58.5 °F /  14.7 °C 30.2 in /  1023.9 hPa NNE 3 mph /  4.8 km/h 7 mph /  11.3 km/h 82 % 0 in /  0.0 mm
22:42 63.9 °F /  17.7 °C 58.3 °F /  14.6 °C 30.2 in /  1023.9 hPa NNW 1 mph /  1.6 km/h 7 mph /  11.3 km/h 82 % 0 in /  0.0 mm
22:47 63.9 °F /  17.7 °C 58.3 °F /  14.6 °C 30.2 in /  1023.9 hPa NNE 2 mph /  3.2 km/h 7 mph /  11.3 km/h 82 % 0 in /  0.0 mm
22:52 63.7 °F /  17.6 °C 58.5 °F /  14.7 °C 30.2 in /  1023.9 hPa NNW 2 mph /  3.2 km/h 7 mph /  11.3 km/h 83 % 0 in /  0.0 mm
22:57 63.5 °F /  17.5 °C 58.3 °F /  14.6 °C 30.2 in /  1023.9 hPa SE 2 mph /  3.2 km/h 7 mph /  11.3 km/h 83 % 0 in /  0.0 mm
23:02 63.3 °F /  17.4 °C 58.1 °F /  14.5 °C 30.2 in /  1023.9 hPa NE 5 mph /  8.0 km/h 7 mph /  11.3 km/h 83 % 0 in /  0.0 mm
23:12 63.1 °F /  17.3 °C 58.3 °F /  14.6 °C 30.2 in /  1023.9 hPa NE 6 mph /  9.7 km/h 7 mph /  11.3 km/h 84 % 0 in /  0.0 mm
23:17 63.1 °F /  17.3 °C 58.3 °F /  14.6 °C 30.2 in /  1023.6 hPa NE 5 mph /  8.0 km/h 9 mph /  14.5 km/h 84 % 0 in /  0.0 mm
23:22 63 °F /  17.2 °C 58.1 °F /  14.5 °C 30.2 in /  1023.6 hPa NNW 3 mph /  4.8 km/h 9 mph /  14.5 km/h 84 % 0 in /  0.0 mm
23:32 62.8 °F /  17.1 °C 57.9 °F /  14.4 °C 30.2 in /  1023.6 hPa NNE 2 mph /  3.2 km/h 8 mph /  12.9 km/h 84 % 0 in /  0.0 mm
23:37 62.4 °F /  16.9 °C 57.9 °F /  14.4 °C 30.2 in /  1023.6 hPa NNE 6 mph /  9.7 km/h 7 mph /  11.3 km/h 85 % 0 in /  0.0 mm
23:42 62.6 °F /  17.0 °C 58.1 °F /  14.5 °C 30.2 in /  1023.6 hPa WNW 3 mph /  4.8 km/h 7 mph /  11.3 km/h 85 % 0 in /  0.0 mm
23:47 62.6 °F /  17.0 °C 57.7 °F /  14.3 °C 30.2 in /  1023.6 hPa NNE 4 mph /  6.4 km/h 8 mph /  12.9 km/h 84 % 0 in /  0.0 mm
23:52 62.4 °F /  16.9 °C 57.9 °F /  14.4 °C 30.2 in /  1023.6 hPa NE 2 mph /  3.2 km/h 8 mph /  12.9 km/h 85 % 0 in /  0.0 mm
23:57 62.2 °F /  16.8 °C 57.7 °F /  14.3 °C 30.2 in /  1023.6 hPa NE 1 mph /  1.6 km/h 8 mph /  12.9 km/h 85 % 0 in /  0.0 mm
Meteo18
Compliments of Weather Underground - 4 mb

Script developed by  Jim McMurry - jmcmurry@mwt.net Adapted for the template by  Wim van der Kuil - Leuven-Template.eu

You find our weather info also at:

European Weather Network

Weather Underground

Equipment we use:

Weather-station
Davis Vue

Weather-program
Meteohub

Weather-server
Raspberry PI 2 B+

Provider
1 and 1

Davis Vue

Meteohub

Raspberry PI 2 B+

1 and 1